Time;durP1;ratioP1;P1;durP2;ratioP2;P2;SDS_P1;SDS_P2;PMS_P1;PMS_P2;Temp;Humidity;BMP_temperature;BMP_pressure;BME280_temperature;BME280_humidity;BME280_pressure;Samples;Min_cycle;Max_cycle;Signal;HPM_P1;HPM_P2
2022/10/10 00:01:34;;;;;;;4.77;3.33;;;;;;;;;;5111761;28;20435;-69
2022/10/10 00:04:01;;;;;;;3.90;3.33;;;;;;;;;;5111927;28;20480;-69
2022/10/10 00:06:29;;;;;;;4.30;3.63;;;;;;;;;;5111714;28;20448;-70
2022/10/10 00:08:56;;;;;;;5.83;3.07;;;;;;;;;;5112019;28;20451;-69
2022/10/10 00:11:24;;;;;;;3.57;3.27;;;;;;;;;;5112159;28;20454;-69
2022/10/10 00:13:51;;;;;;;4.00;2.97;;;;;;;;;;5112467;28;20452;-70
2022/10/10 00:16:19;;;;;;;3.63;2.83;;;;;;;;;;5112311;28;20447;-69
2022/10/10 00:18:48;;;;;;;4.73;2.80;;;;;;;;;;5112397;28;20450;-69
2022/10/10 00:21:15;;;;;;;3.93;3.17;;;;;;;;;;5111133;28;20539;-69
2022/10/10 00:23:42;;;;;;;3.23;2.93;;;;;;;;;;5112235;28;20478;-69
2022/10/10 00:26:09;;;;;;;8.30;3.93;;;;;;;;;;5111271;28;20448;-69
2022/10/10 00:28:37;;;;;;;7.33;3.13;;;;;;;;;;5112106;28;20448;-69
2022/10/10 00:31:04;;;;;;;6.80;3.10;;;;;;;;;;5111063;28;20497;-69
2022/10/10 00:33:32;;;;;;;4.03;2.77;;;;;;;;;;5112065;28;20470;-69
2022/10/10 00:36:00;;;;;;;6.93;3.83;;;;;;;;;;5111431;28;20567;-69
2022/10/10 00:38:27;;;;;;;2.97;2.60;;;;;;;;;;5111751;28;20455;-69
2022/10/10 00:40:55;;;;;;;4.50;4.10;;;;;;;;;;5111124;28;20463;-69
2022/10/10 00:43:23;;;;;;;5.37;3.07;;;;;;;;;;5111602;28;20995;-69
2022/10/10 00:45:50;;;;;;;5.77;3.37;;;;;;;;;;5112208;28;20448;-71
2022/10/10 00:48:19;;;;;;;3.70;2.80;;;;;;;;;;5110685;28;20483;-69
2022/10/10 00:50:49;;;;;;;5.47;3.47;;;;;;;;;;5111459;28;20798;-69
2022/10/10 00:53:18;;;;;;;4.40;3.57;;;;;;;;;;5111246;28;20443;-70
2022/10/10 00:55:46;;;;;;;3.83;3.07;;;;;;;;;;5111911;28;20447;-70
2022/10/10 00:58:14;;;;;;;8.37;2.70;;;;;;;;;;5111038;28;20836;-69
2022/10/10 01:00:41;;;;;;;5.00;3.10;;;;;;;;;;5111064;28;20454;-69
2022/10/10 01:03:09;;;;;;;3.53;3.10;;;;;;;;;;5110582;28;20479;-70
2022/10/10 01:05:36;;;;;;;4.70;2.90;;;;;;;;;;5111371;28;20539;-69
2022/10/10 01:08:05;;;;;;;7.90;3.57;;;;;;;;;;5111045;28;20796;-69
2022/10/10 01:10:36;;;;;;;4.93;2.43;;;;;;;;;;5111146;28;20451;-69
2022/10/10 01:13:08;;;;;;;5.00;3.00;;;;;;;;;;5110891;28;20467;-69
2022/10/10 01:15:43;;;;;;;6.73;3.40;;;;;;;;;;5111598;28;20440;-69
2022/10/10 01:18:15;;;;;;;5.57;4.03;;;;;;;;;;5115111;28;20933;-69
2022/10/10 01:20:56;;;;;;;3.60;2.77;;;;;;;;;;5115005;28;20798;-69
2022/10/10 01:23:36;;;;;;;9.90;3.17;;;;;;;;;;5115728;28;20472;-69
2022/10/10 01:26:14;;;;;;;5.73;2.87;;;;;;;;;;5114712;28;20927;-69
2022/10/10 01:28:45;;;;;;;3.20;2.67;;;;;;;;;;5115082;28;20435;-69
2022/10/10 01:31:13;;;;;;;4.23;3.43;;;;;;;;;;5114732;28;20523;-69
2022/10/10 01:33:45;;;;;;;4.10;3.13;;;;;;;;;;5115259;28;20459;-70
2022/10/10 01:36:16;;;;;;;4.00;2.77;;;;;;;;;;5115029;28;20443;-69
2022/10/10 01:38:49;;;;;;;6.70;3.30;;;;;;;;;;5115256;28;21444;-71
2022/10/10 01:41:17;;;;;;;4.40;3.20;;;;;;;;;;5114276;28;20436;-70
2022/10/10 01:43:46;;;;;;;4.90;3.47;;;;;;;;;;5115018;28;20486;-70
2022/10/10 01:46:14;;;;;;;3.87;3.17;;;;;;;;;;5114324;28;20707;-69
2022/10/10 01:48:41;;;;;;;4.77;2.80;;;;;;;;;;5114917;28;20436;-69
2022/10/10 01:51:21;;;;;;;4.10;2.93;;;;;;;;;;5113899;28;20938;-69
2022/10/10 01:53:54;;;;;;;4.30;3.13;;;;;;;;;;5115205;28;20458;-69
2022/10/10 01:56:26;;;;;;;6.57;3.83;;;;;;;;;;5114848;28;20447;-69
2022/10/10 01:59:09;;;;;;;4.30;3.50;;;;;;;;;;5114329;28;20941;-68
2022/10/10 02:01:40;;;;;;;3.03;2.57;;;;;;;;;;5114478;28;20432;-69
2022/10/10 02:04:14;;;;;;;6.00;3.50;;;;;;;;;;5114284;28;20482;-69
2022/10/10 02:06:43;;;;;;;8.10;3.83;;;;;;;;;;5114949;28;20763;-69
2022/10/10 02:09:14;;;;;;;3.70;2.90;;;;;;;;;;5114173;28;20447;-69
2022/10/10 02:11:41;;;;;;;5.63;3.10;;;;;;;;;;5101118;28;20770;-69
2022/10/10 02:14:12;;;;;;;5.57;4.00;;;;;;;;;;5113993;28;20455;-69
2022/10/10 02:16:41;;;;;;;4.87;3.07;;;;;;;;;;5114541;28;20459;-69
2022/10/10 02:19:10;;;;;;;17.23;4.10;;;;;;;;;;5113680;28;20451;-69
2022/10/10 02:21:39;;;;;;;4.17;3.27;;;;;;;;;;5114087;28;20444;-69
2022/10/10 02:24:07;;;;;;;4.30;3.00;;;;;;;;;;5113819;28;20838;-69
2022/10/10 02:26:35;;;;;;;4.50;3.20;;;;;;;;;;5114596;28;20456;-69
2022/10/10 02:29:05;;;;;;;4.90;3.60;;;;;;;;;;5112310;28;20952;-69
2022/10/10 02:31:35;;;;;;;3.30;2.70;;;;;;;;;;5113974;28;20440;-70
2022/10/10 02:34:06;;;;;;;4.60;3.00;;;;;;;;;;5113871;28;20447;-69
2022/10/10 02:36:33;;;;;;;5.07;3.70;;;;;;;;;;5114385;28;20447;-69
2022/10/10 02:39:01;;;;;;;4.77;3.60;;;;;;;;;;5113422;28;20447;-69
2022/10/10 02:41:28;;;;;;;4.37;3.83;;;;;;;;;;5113835;28;20439;-70
2022/10/10 02:43:56;;;;;;;3.90;3.00;;;;;;;;;;5113033;28;20475;-70
2022/10/10 02:46:23;;;;;;;3.90;3.23;;;;;;;;;;5113711;28;20452;-69
2022/10/10 02:48:51;;;;;;;4.43;4.03;;;;;;;;;;5114230;28;20440;-69
2022/10/10 02:51:19;;;;;;;3.73;2.97;;;;;;;;;;5113692;28;20444;-69
2022/10/10 02:53:46;;;;;;;4.13;3.40;;;;;;;;;;5114054;28;20448;-69
2022/10/10 02:56:13;;;;;;;4.73;3.37;;;;;;;;;;5113451;28;20708;-69
2022/10/10 02:58:40;;;;;;;4.70;2.70;;;;;;;;;;5113588;28;20459;-69
2022/10/10 03:01:07;;;;;;;4.00;2.97;;;;;;;;;;5112583;28;20942;-69
2022/10/10 03:03:34;;;;;;;3.77;3.00;;;;;;;;;;5113904;28;20487;-69
2022/10/10 03:06:03;;;;;;;3.87;3.27;;;;;;;;;;5112899;28;20447;-69
2022/10/10 03:08:31;;;;;;;3.60;2.83;;;;;;;;;;5113663;28;20468;-70
2022/10/10 03:10:58;;;;;;;5.40;3.50;;;;;;;;;;5112681;28;20448;-69
2022/10/10 03:13:26;;;;;;;3.17;2.73;;;;;;;;;;5113550;28;20456;-70
2022/10/10 03:15:54;;;;;;;3.00;2.70;;;;;;;;;;5113476;28;20448;-67
2022/10/10 03:18:21;;;;;;;3.53;3.23;;;;;;;;;;5113924;28;20531;-69
2022/10/10 03:20:51;;;;;;;3.80;3.10;;;;;;;;;;5112727;28;20930;-69
2022/10/10 03:23:20;;;;;;;7.97;2.97;;;;;;;;;;5113378;28;20926;-69
2022/10/10 03:25:47;;;;;;;6.43;3.10;;;;;;;;;;5113197;28;20454;-70
2022/10/10 03:28:14;;;;;;;5.37;4.23;;;;;;;;;;5112437;28;20466;-69
2022/10/10 03:30:42;;;;;;;4.93;3.37;;;;;;;;;;5112994;28;20444;-70
2022/10/10 03:33:09;;;;;;;5.50;3.23;;;;;;;;;;5112694;28;20451;-69
2022/10/10 03:35:36;;;;;;;4.37;3.40;;;;;;;;;;5113112;28;20796;-70
2022/10/10 03:38:04;;;;;;;4.77;2.80;;;;;;;;;;5112219;28;20453;-69
2022/10/10 03:40:32;;;;;;;4.27;3.53;;;;;;;;;;5112048;28;20950;-70
2022/10/10 03:42:59;;;;;;;6.70;2.70;;;;;;;;;;5112585;28;20531;-70
2022/10/10 03:45:26;;;;;;;4.10;2.87;;;;;;;;;;5112471;27;20479;-70
2022/10/10 03:47:53;;;;;;;3.83;2.90;;;;;;;;;;5112090;28;20505;-68
2022/10/10 03:50:20;;;;;;;4.23;3.30;;;;;;;;;;5112582;28;20807;-70
2022/10/10 03:52:48;;;;;;;3.10;2.80;;;;;;;;;;5112964;28;20447;-70
2022/10/10 03:55:15;;;;;;;3.90;3.00;;;;;;;;;;5112179;28;20451;-70
2022/10/10 03:57:43;;;;;;;4.63;3.40;;;;;;;;;;5112828;28;20808;-71
2022/10/10 04:00:11;;;;;;;4.00;2.60;;;;;;;;;;5110535;28;20452;-70
2022/10/10 04:02:38;;;;;;;3.57;2.93;;;;;;;;;;5108905;28;20444;-70
2022/10/10 04:05:05;;;;;;;2.83;2.47;;;;;;;;;;5098523;28;20822;-70
2022/10/10 04:07:33;;;;;;;6.13;3.90;;;;;;;;;;5101591;28;20441;-71
2022/10/10 04:10:00;;;;;;;3.50;2.50;;;;;;;;;;5111205;28;20505;-70
2022/10/10 04:12:27;;;;;;;4.03;2.80;;;;;;;;;;5111681;28;20480;-71
2022/10/10 04:14:56;;;;;;;4.03;3.30;;;;;;;;;;5104737;28;20456;-68
2022/10/10 04:17:23;;;;;;;3.40;2.73;;;;;;;;;;5107219;28;20451;-70
2022/10/10 04:19:50;;;;;;;3.20;2.70;;;;;;;;;;5111768;28;20440;-70
2022/10/10 04:22:17;;;;;;;2.60;2.37;;;;;;;;;;5111443;28;20832;-70
2022/10/10 04:24:44;;;;;;;4.93;3.50;;;;;;;;;;5111746;28;20487;-70
2022/10/10 04:27:12;;;;;;;3.80;2.80;;;;;;;;;;5111195;28;20938;-70
2022/10/10 04:29:39;;;;;;;5.73;3.03;;;;;;;;;;5111386;28;20471;-69
2022/10/10 04:32:07;;;;;;;3.70;2.90;;;;;;;;;;5110620;28;20451;-70
2022/10/10 04:34:34;;;;;;;5.13;3.40;;;;;;;;;;5111537;28;20447;-69
2022/10/10 04:37:02;;;;;;;4.07;3.60;;;;;;;;;;5111136;28;20448;-69
2022/10/10 04:39:29;;;;;;;5.10;3.43;;;;;;;;;;5111636;28;20519;-69
2022/10/10 04:41:56;;;;;;;3.97;2.80;;;;;;;;;;5109198;28;20436;-70
2022/10/10 04:44:23;;;;;;;4.17;2.70;;;;;;;;;;5111750;28;20998;-70
2022/10/10 04:46:50;;;;;;;3.70;3.13;;;;;;;;;;5110239;28;20503;-69
2022/10/10 04:49:18;;;;;;;5.80;2.87;;;;;;;;;;5110292;28;20459;-69
2022/10/10 04:51:45;;;;;;;4.07;3.30;;;;;;;;;;5110337;28;20455;-70
2022/10/10 04:54:13;;;;;;;4.37;2.90;;;;;;;;;;5110021;28;20459;-68
2022/10/10 04:56:41;;;;;;;3.80;3.20;;;;;;;;;;5111478;28;20488;-69
2022/10/10 04:59:08;;;;;;;3.47;3.17;;;;;;;;;;5110610;28;20452;-69
2022/10/10 05:01:35;;;;;;;3.10;2.60;;;;;;;;;;5110255;28;20451;-69
2022/10/10 05:04:03;;;;;;;2.50;2.30;;;;;;;;;;5110892;28;20444;-69
2022/10/10 05:06:31;;;;;;;3.40;2.80;;;;;;;;;;5111141;28;20448;-70
2022/10/10 05:08:58;;;;;;;3.50;2.37;;;;;;;;;;5110575;28;20441;-69
2022/10/10 05:11:25;;;;;;;5.67;3.10;;;;;;;;;;5110882;28;20444;-70
2022/10/10 05:13:53;;;;;;;8.23;4.93;;;;;;;;;;5111052;28;20443;-70
2022/10/10 05:16:20;;;;;;;3.90;3.40;;;;;;;;;;5111168;28;20459;-70
2022/10/10 05:18:47;;;;;;;3.37;3.00;;;;;;;;;;5110287;28;20446;-69
2022/10/10 05:21:14;;;;;;;3.97;3.00;;;;;;;;;;5105316;28;20808;-69
2022/10/10 05:23:42;;;;;;;2.93;2.50;;;;;;;;;;5104696;28;20443;-69
2022/10/10 05:26:10;;;;;;;4.10;3.03;;;;;;;;;;5109822;28;20871;-70
2022/10/10 05:28:37;;;;;;;6.10;3.37;;;;;;;;;;5111082;28;20479;-70
2022/10/10 05:31:05;;;;;;;3.33;2.83;;;;;;;;;;5109991;28;20447;-71
2022/10/10 05:33:33;;;;;;;3.80;2.90;;;;;;;;;;5111251;28;20492;-71
2022/10/10 05:36:04;;;;;;;4.10;2.90;;;;;;;;;;5109237;28;20444;-71
2022/10/10 05:38:32;;;;;;;3.30;2.90;;;;;;;;;;5110730;28;20454;-71
2022/10/10 05:41:00;;;;;;;3.90;3.10;;;;;;;;;;5110448;28;20474;-71
2022/10/10 05:43:28;;;;;;;3.33;3.00;;;;;;;;;;5110964;28;20482;-71
2022/10/10 05:45:55;;;;;;;3.73;2.53;;;;;;;;;;5110158;28;20479;-71
2022/10/10 05:48:22;;;;;;;4.60;3.43;;;;;;;;;;5111143;28;20472;-71
2022/10/10 05:50:50;;;;;;;3.83;2.50;;;;;;;;;;5111447;28;20799;-71
2022/10/10 05:53:17;;;;;;;3.57;2.60;;;;;;;;;;5110646;28;20450;-70
2022/10/10 05:55:45;;;;;;;4.10;2.80;;;;;;;;;;5111102;28;20462;-71
2022/10/10 05:58:13;;;;;;;5.27;3.77;;;;;;;;;;5110671;28;20453;-71
2022/10/10 06:00:40;;;;;;;3.03;2.73;;;;;;;;;;5111177;28;20446;-71
2022/10/10 06:03:11;;;;;;;2.67;2.23;;;;;;;;;;5112548;28;20806;-71
2022/10/10 06:05:38;;;;;;;3.80;2.87;;;;;;;;;;5114720;28;20479;-71
2022/10/10 06:08:05;;;;;;;4.80;3.00;;;;;;;;;;5114140;28;20448;-71
2022/10/10 06:10:34;;;;;;;4.63;3.47;;;;;;;;;;5115177;28;20455;-70
2022/10/10 06:13:01;;;;;;;5.40;2.50;;;;;;;;;;5114250;28;20452;-71
2022/10/10 06:15:30;;;;;;;4.00;2.87;;;;;;;;;;5114155;28;20965;-71
2022/10/10 06:17:57;;;;;;;3.40;3.10;;;;;;;;;;5114342;28;20464;-71
2022/10/10 06:20:24;;;;;;;7.47;2.87;;;;;;;;;;5114750;28;20789;-70
2022/10/10 06:22:52;;;;;;;3.30;2.57;;;;;;;;;;5114730;28;20456;-71
2022/10/10 06:25:19;;;;;;;4.90;3.20;;;;;;;;;;5114303;28;20484;-71
2022/10/10 06:27:46;;;;;;;2.87;2.43;;;;;;;;;;5114626;28;20471;-71
2022/10/10 06:30:13;;;;;;;3.40;2.50;;;;;;;;;;5114051;28;20817;-71
2022/10/10 06:32:42;;;;;;;6.70;3.83;;;;;;;;;;5114088;28;20455;-71
2022/10/10 06:35:09;;;;;;;7.53;3.67;;;;;;;;;;5113324;28;20486;-71
2022/10/10 06:37:36;;;;;;;3.17;2.70;;;;;;;;;;5100767;28;20444;-71
2022/10/10 06:40:04;;;;;;;4.40;2.40;;;;;;;;;;5113286;28;20957;-70
2022/10/10 06:42:31;;;;;;;3.60;3.30;;;;;;;;;;5101054;28;20543;-71
2022/10/10 06:44:58;;;;;;;2.80;2.43;;;;;;;;;;5112991;28;20821;-70
2022/10/10 06:47:26;;;;;;;4.23;3.30;;;;;;;;;;5114168;28;20479;-70
2022/10/10 06:49:54;;;;;;;4.90;2.83;;;;;;;;;;5114240;28;20812;-71
2022/10/10 06:52:21;;;;;;;3.33;2.83;;;;;;;;;;5114248;28;20460;-71
2022/10/10 06:54:48;;;;;;;5.20;2.37;;;;;;;;;;5113954;28;20778;-71
2022/10/10 06:57:15;;;;;;;4.90;3.00;;;;;;;;;;5113439;28;20460;-71
2022/10/10 06:59:42;;;;;;;3.67;2.30;;;;;;;;;;5113695;28;20562;-71
2022/10/10 07:02:12;;;;;;;7.20;3.63;;;;;;;;;;5113438;28;20496;-71
2022/10/10 07:04:39;;;;;;;5.30;3.17;;;;;;;;;;5113528;28;20451;-71
2022/10/10 07:07:08;;;;;;;6.60;3.40;;;;;;;;;;5113325;28;20440;-71
2022/10/10 07:09:35;;;;;;;4.40;3.07;;;;;;;;;;5113341;28;20452;-72
2022/10/10 07:12:03;;;;;;;5.20;2.97;;;;;;;;;;5113198;28;20440;-71
2022/10/10 07:14:30;;;;;;;2.87;2.57;;;;;;;;;;5112420;28;20459;-71
2022/10/10 07:16:57;;;;;;;5.80;2.80;;;;;;;;;;5113055;28;20457;-71
2022/10/10 07:19:24;;;;;;;3.20;2.73;;;;;;;;;;5113476;28;20449;-70
2022/10/10 07:21:52;;;;;;;4.50;2.83;;;;;;;;;;5113398;28;20458;-71
2022/10/10 07:24:20;;;;;;;3.60;3.20;;;;;;;;;;5113263;28;20501;-71
2022/10/10 07:26:47;;;;;;;7.90;4.33;;;;;;;;;;5113520;28;20484;-70
2022/10/10 07:29:14;;;;;;;4.73;3.60;;;;;;;;;;5112812;28;20952;-71
2022/10/10 07:31:41;;;;;;;6.27;3.60;;;;;;;;;;5113433;28;20466;-71
2022/10/10 07:34:08;;;;;;;4.63;3.10;;;;;;;;;;5112629;28;20454;-71
2022/10/10 07:36:37;;;;;;;4.70;3.97;;;;;;;;;;5112919;28;20460;-70
2022/10/10 07:39:04;;;;;;;2.80;2.43;;;;;;;;;;5112338;28;20442;-70
2022/10/10 07:41:32;;;;;;;3.90;2.63;;;;;;;;;;5112831;28;20487;-71
2022/10/10 07:43:59;;;;;;;4.10;2.73;;;;;;;;;;5112645;28;20447;-70
2022/10/10 07:46:29;;;;;;;4.00;3.10;;;;;;;;;;5112556;28;20495;-71
2022/10/10 07:48:56;;;;;;;4.43;3.43;;;;;;;;;;5099830;28;20451;-70
2022/10/10 07:51:23;;;;;;;4.30;2.97;;;;;;;;;;5112960;28;20448;-69
2022/10/10 07:53:52;;;;;;;3.90;2.77;;;;;;;;;;5112772;28;20945;-70
2022/10/10 07:56:19;;;;;;;3.50;2.73;;;;;;;;;;5112590;28;20466;-70
2022/10/10 07:58:48;;;;;;;4.73;3.67;;;;;;;;;;5112935;28;20443;-71
2022/10/10 08:01:15;;;;;;;3.70;3.00;;;;;;;;;;5111985;28;20448;-71
2022/10/10 08:03:42;;;;;;;6.27;2.87;;;;;;;;;;5112952;28;20470;-70
2022/10/10 08:06:09;;;;;;;4.57;2.77;;;;;;;;;;5111721;28;20476;-71
2022/10/10 08:08:37;;;;;;;4.13;2.40;;;;;;;;;;5112641;28;20794;-71
2022/10/10 08:11:05;;;;;;;4.13;2.20;;;;;;;;;;5111928;28;20443;-70
2022/10/10 08:13:32;;;;;;;3.40;2.70;;;;;;;;;;5112307;28;20444;-70
2022/10/10 08:16:01;;;;;;;4.17;3.07;;;;;;;;;;5111238;28;20467;-70
2022/10/10 08:18:28;;;;;;;6.13;2.60;;;;;;;;;;5112762;28;20454;-70
2022/10/10 08:20:59;;;;;;;4.47;2.77;;;;;;;;;;5111456;28;20444;-70
2022/10/10 08:23:26;;;;;;;2.50;2.10;;;;;;;;;;5112174;28;20497;-70
2022/10/10 08:25:54;;;;;;;3.27;2.47;;;;;;;;;;5110642;28;20536;-67
2022/10/10 08:28:21;;;;;;;4.17;2.13;;;;;;;;;;5112699;28;20440;-70
2022/10/10 08:30:48;;;;;;;3.50;2.30;;;;;;;;;;5112172;28;20440;-70
2022/10/10 08:33:16;;;;;;;3.10;2.37;;;;;;;;;;5111569;28;21009;-70
2022/10/10 08:35:43;;;;;;;3.77;2.33;;;;;;;;;;5111880;28;20452;-70
2022/10/10 08:38:12;;;;;;;5.10;2.50;;;;;;;;;;5111646;28;20787;-70
2022/10/10 08:40:42;;;;;;;3.77;2.33;;;;;;;;;;5112171;28;20456;-71
2022/10/10 08:43:10;;;;;;;2.40;2.20;;;;;;;;;;5111655;28;20783;-71
2022/10/10 08:45:38;;;;;;;3.33;2.20;;;;;;;;;;5111427;28;20488;-71
2022/10/10 08:48:07;;;;;;;2.40;1.93;;;;;;;;;;5111439;28;20480;-71
2022/10/10 08:50:38;;;;;;;3.50;2.00;;;;;;;;;;5098519;28;20443;-70
2022/10/10 08:53:09;;;;;;;2.03;1.70;;;;;;;;;;5111525;28;20466;-70
2022/10/10 08:55:38;;;;;;;3.00;2.20;;;;;;;;;;5111331;28;20440;-71
2022/10/10 08:58:08;;;;;;;2.40;1.80;;;;;;;;;;5110845;28;20448;-71
2022/10/10 09:00:39;;;;;;;3.57;2.43;;;;;;;;;;5111952;28;20540;-70
2022/10/10 09:03:13;;;;;;;2.60;1.40;;;;;;;;;;5111577;28;20443;-70
2022/10/10 09:05:47;;;;;;;4.77;1.97;;;;;;;;;;5111550;28;20475;-70
2022/10/10 09:08:22;;;;;;;3.13;1.50;;;;;;;;;;5111282;28;20444;-71
2022/10/10 09:10:53;;;;;;;3.43;2.40;;;;;;;;;;5111991;28;20446;-70
2022/10/10 09:13:25;;;;;;;1.53;1.43;;;;;;;;;;5111659;28;20446;-71
2022/10/10 09:15:55;;;;;;;1.83;1.67;;;;;;;;;;5111287;28;20481;-71
2022/10/10 09:18:29;;;;;;;2.00;1.90;;;;;;;;;;5112087;28;20444;-70
2022/10/10 09:21:02;;;;;;;2.73;1.60;;;;;;;;;;5110844;28;20438;-70
2022/10/10 09:23:30;;;;;;;2.40;1.87;;;;;;;;;;5111515;28;20448;-70
2022/10/10 09:25:59;;;;;;;2.63;1.70;;;;;;;;;;5110742;28;20483;-71
2022/10/10 09:28:34;;;;;;;5.13;2.20;;;;;;;;;;5111447;28;20448;-70
2022/10/10 09:31:02;;;;;;;2.37;1.80;;;;;;;;;;5110815;28;20462;-70
2022/10/10 09:33:32;;;;;;;1.80;1.50;;;;;;;;;;5111268;28;20930;-70
2022/10/10 09:36:02;;;;;;;3.20;2.10;;;;;;;;;;5097241;28;20500;-70
2022/10/10 09:38:32;;;;;;;3.30;1.60;;;;;;;;;;5114033;28;20454;-70
2022/10/10 09:41:00;;;;;;;2.40;1.60;;;;;;;;;;5114783;28;20448;-71
2022/10/10 09:43:30;;;;;;;1.50;1.37;;;;;;;;;;5115393;28;20443;-70
2022/10/10 09:45:57;;;;;;;2.60;1.67;;;;;;;;;;5113768;28;20482;-71
2022/10/10 09:48:28;;;;;;;2.13;1.57;;;;;;;;;;5115369;28;20476;-70
2022/10/10 09:50:55;;;;;;;3.17;1.97;;;;;;;;;;5115021;28;20446;-70
2022/10/10 09:53:23;;;;;;;2.90;1.53;;;;;;;;;;5115090;28;20923;-71
2022/10/10 09:55:52;;;;;;;2.63;1.90;;;;;;;;;;5115122;28;20458;-71
2022/10/10 09:58:24;;;;;;;1.97;1.40;;;;;;;;;;5115319;28;20446;-71
2022/10/10 10:00:52;;;;;;;4.33;1.80;;;;;;;;;;5115342;28;20451;-70
2022/10/10 10:03:20;;;;;;;1.50;1.37;;;;;;;;;;5115316;28;20475;-70
2022/10/10 10:05:54;;;;;;;4.07;1.70;;;;;;;;;;5114285;28;20451;-70
2022/10/10 10:08:25;;;;;;;4.27;1.40;;;;;;;;;;5102115;28;20435;-70
2022/10/10 10:10:56;;;;;;;1.57;1.47;;;;;;;;;;5115332;28;20439;-71
2022/10/10 10:13:25;;;;;;;3.30;1.70;;;;;;;;;;5115520;28;20440;-70
2022/10/10 10:15:59;;;;;;;4.50;1.50;;;;;;;;;;5114567;28;20465;-70
2022/10/10 10:18:27;;;;;;;2.00;1.60;;;;;;;;;;5115084;28;20443;-71
2022/10/10 10:20:56;;;;;;;1.43;1.10;;;;;;;;;;5114311;28;20455;-70
2022/10/10 10:23:25;;;;;;;1.80;1.30;;;;;;;;;;5114951;28;20455;-70
2022/10/10 10:25:59;;;;;;;3.80;1.70;;;;;;;;;;5114345;28;20448;-71
2022/10/10 10:28:26;;;;;;;2.03;1.40;;;;;;;;;;5114879;28;20494;-70
2022/10/10 10:30:54;;;;;;;2.23;1.07;;;;;;;;;;5114167;28;20450;-67
2022/10/10 10:33:28;;;;;;;1.93;1.33;;;;;;;;;;5114839;28;20801;-70
2022/10/10 10:35:58;;;;;;;1.90;1.53;;;;;;;;;;5100368;28;20451;-70
2022/10/10 10:38:33;;;;;;;2.33;2.03;;;;;;;;;;5114071;28;20964;-70
2022/10/10 10:41:05;;;;;;;1.50;1.10;;;;;;;;;;5113984;28;20452;-71
2022/10/10 10:43:38;;;;;;;2.17;1.50;;;;;;;;;;5114482;28;20469;-71
2022/10/10 10:46:10;;;;;;;2.37;1.27;;;;;;;;;;5113139;28;20482;-71
2022/10/10 10:48:40;;;;;;;1.67;1.10;;;;;;;;;;5113803;28;20483;-71
2022/10/10 10:51:13;;;;;;;2.47;1.40;;;;;;;;;;5113442;28;20448;-71
2022/10/10 10:53:46;;;;;;;2.67;1.50;;;;;;;;;;5113904;28;20451;-71
2022/10/10 10:56:19;;;;;;;1.93;1.63;;;;;;;;;;5113269;28;20700;-70
2022/10/10 10:59:05;;;;;;;2.10;1.20;;;;;;;;;;5101462;28;20463;-71
2022/10/10 11:01:36;;;;;;;2.40;1.63;;;;;;;;;;5113741;28;20803;-71
2022/10/10 11:04:04;;;;;;;2.13;1.40;;;;;;;;;;5113178;28;20448;-71
2022/10/10 11:06:45;;;;;;;1.80;1.30;;;;;;;;;;5113429;28;20480;-71
2022/10/10 11:09:17;;;;;;;3.00;1.63;;;;;;;;;;5113404;28;20446;-72
2022/10/10 11:11:52;;;;;;;1.47;1.00;;;;;;;;;;5113708;28;20516;-72
2022/10/10 11:14:25;;;;;;;1.40;1.30;;;;;;;;;;5113473;28;20446;-71
2022/10/10 11:16:55;;;;;;;1.50;1.23;;;;;;;;;;5113709;28;20455;-72
2022/10/10 11:19:27;;;;;;;2.57;1.60;;;;;;;;;;5113594;28;20522;-71
2022/10/10 11:21:55;;;;;;;3.17;1.50;;;;;;;;;;5113297;28;20463;-68
2022/10/10 11:24:33;;;;;;;1.70;1.30;;;;;;;;;;5113449;28;20447;-70
2022/10/10 11:27:04;;;;;;;4.20;1.20;;;;;;;;;;5112605;28;20467;-70
2022/10/10 11:29:34;;;;;;;2.40;1.40;;;;;;;;;;5113692;28;20428;-71
2022/10/10 11:32:03;;;;;;;1.97;1.33;;;;;;;;;;5112547;28;20945;-70
2022/10/10 11:34:34;;;;;;;1.40;1.20;;;;;;;;;;5112737;28;20451;-72
2022/10/10 11:37:04;;;;;;;4.80;1.37;;;;;;;;;;5099049;28;20466;-70
2022/10/10 11:39:34;;;;;;;3.20;1.30;;;;;;;;;;5113489;28;20436;-71
2022/10/10 11:42:03;;;;;;;2.17;1.50;;;;;;;;;;5113049;28;20491;-71
2022/10/10 11:44:32;;;;;;;1.50;1.40;;;;;;;;;;5112906;28;20451;-71
2022/10/10 11:47:02;;;;;;;4.77;1.63;;;;;;;;;;5111953;28;20491;-71
2022/10/10 11:49:34;;;;;;;4.07;1.80;;;;;;;;;;5113277;28;20442;-71
2022/10/10 11:52:08;;;;;;;2.00;1.60;;;;;;;;;;5112161;28;20444;-71
2022/10/10 11:54:40;;;;;;;4.13;1.57;;;;;;;;;;5112654;28;20444;-71
2022/10/10 11:57:10;;;;;;;5.37;1.93;;;;;;;;;;5099800;28;20539;-71
2022/10/10 11:59:41;;;;;;;1.80;1.30;;;;;;;;;;5112995;28;20443;-71
2022/10/10 12:02:16;;;;;;;3.87;1.80;;;;;;;;;;5111839;28;20945;-71
2022/10/10 12:04:43;;;;;;;2.80;1.73;;;;;;;;;;5112314;28;20567;-71
2022/10/10 12:07:14;;;;;;;7.30;1.80;;;;;;;;;;5112229;28;20483;-70
2022/10/10 12:09:44;;;;;;;4.30;1.43;;;;;;;;;;5112677;28;20444;-70
2022/10/10 12:12:14;;;;;;;4.87;1.63;;;;;;;;;;5112351;28;20452;-71
2022/10/10 12:14:43;;;;;;;2.93;1.70;;;;;;;;;;5112180;28;20471;-71
2022/10/10 12:17:19;;;;;;;5.23;1.40;;;;;;;;;;5111745;28;20455;-72
2022/10/10 12:19:48;;;;;;;3.10;1.33;;;;;;;;;;5112285;28;20527;-72
2022/10/10 12:22:22;;;;;;;2.50;1.60;;;;;;;;;;5111818;28;20443;-70
2022/10/10 12:25:23;;;;;;;8.70;2.73;;;;;;;;;;5112092;28;20446;-71
2022/10/10 12:28:04;;;;;;;2.93;1.60;;;;;;;;;;5029642;28;20495;-71
2022/10/10 12:30:31;;;;;;;2.53;1.60;;;;;;;;;;5029243;28;20452;-70
2022/10/10 12:32:58;;;;;;;3.53;1.83;;;7.60;99.90;;;;;;5073495;28;20456;-71
2022/10/10 12:35:39;;;;;;;2.13;1.73;;;22.40;99.90;;;;;;5111856;28;20444;-71
2022/10/10 12:38:15;;;;;;;2.33;1.30;;;22.80;99.90;;;;;;5111491;28;20455;-71
2022/10/10 12:41:08;;;;;;;2.20;1.60;;;23.00;99.90;;;;;;5112398;28;20462;-71
2022/10/10 12:43:43;;;;;;;2.73;1.60;;;23.30;99.90;;;;;;5092676;28;20456;-71
2022/10/10 12:46:33;;;;;;;3.97;1.80;;;23.10;99.90;;;;;;5111541;28;20466;-70
2022/10/10 12:49:16;;;;;;;3.10;2.27;;;23.30;99.90;;;;;;5111706;28;20523;-71
2022/10/10 12:51:45;;;;;;;4.57;4.17;;;23.80;99.90;;;;;;5108906;28;21206;-71
2022/10/10 12:54:24;;;;;;;7.10;1.80;;;23.70;99.90;;;;;;5111421;28;20447;-71
2022/10/10 12:56:58;;;;;;;2.33;1.47;;;23.70;99.90;;;;;;5112166;28;20849;-71
2022/10/10 12:59:26;;;;;;;7.67;1.67;;;23.50;99.90;;;;;;5112262;28;20435;-71
2022/10/10 13:01:58;;;;;;;1.83;1.57;;;23.20;99.90;;;;;;5111170;28;20440;-67
2022/10/10 13:04:27;;;;;;;1.60;1.40;;;23.20;99.90;;;;;;5111492;28;20798;-70
2022/10/10 13:06:56;;;;;;;2.80;1.57;;;22.90;99.90;;;;;;5111387;28;20846;-69
2022/10/10 13:09:26;;;;;;;3.10;1.90;;;22.70;99.90;;;;;;5111856;28;20462;-70
2022/10/10 13:11:58;;;;;;;2.73;1.57;;;22.70;99.90;;;;;;5111572;28;20512;-67
2022/10/10 13:14:36;;;;;;;6.63;1.90;;;22.20;99.90;;;;;;5111386;28;20435;-71
2022/10/10 13:17:03;;;;;;;3.10;1.97;;;22.40;99.90;;;;;;5110842;28;20465;-71
2022/10/10 13:19:30;;;;;;;3.30;2.00;;;22.40;99.90;;;;;;5111577;28;20448;-70
2022/10/10 13:21:56;;;;;;;3.77;2.33;;;22.10;99.90;;;;;;5111249;28;20802;-71
2022/10/10 13:24:28;;;;;;;7.17;3.03;;;21.70;99.90;;;;;;5111221;28;20448;-70
2022/10/10 13:26:56;;;;;;;3.40;2.17;;;21.70;99.90;;;;;;5111188;28;20840;-71
2022/10/10 13:29:29;;;;;;;3.47;2.07;;;21.70;99.90;;;;;;5111610;28;20443;-71
2022/10/10 13:32:00;;;;;;;2.23;1.80;;;21.90;99.90;;;;;;5110611;28;20439;-71
2022/10/10 13:34:30;;;;;;;3.90;1.73;;;22.20;99.90;;;;;;5111379;28;20776;-71
2022/10/10 13:37:00;;;;;;;5.67;2.40;;;22.30;99.90;;;;;;5111333;28;20448;-71
2022/10/10 13:39:29;;;;;;;2.87;2.00;;;22.50;99.90;;;;;;5111699;28;20434;-72
2022/10/10 13:41:56;;;;;;;3.53;1.80;;;22.50;99.90;;;;;;5111012;28;20591;-72
2022/10/10 13:44:30;;;;;;;3.37;1.90;;;22.50;99.90;;;;;;5111409;28;20440;-70
2022/10/10 13:46:57;;;;;;;2.40;2.00;;;22.60;99.90;;;;;;5110443;28;20481;-72
2022/10/10 13:49:26;;;;;;;5.87;2.17;;;22.60;99.90;;;;;;5111493;28;20451;-70
2022/10/10 13:52:06;;;;;;;4.00;1.83;;;23.10;99.90;;;;;;5111545;28;20480;-73
2022/10/10 13:54:41;;;;;;;3.37;2.10;;;23.20;99.90;;;;;;5111076;28;20472;-72
2022/10/10 13:57:14;;;;;;;4.27;2.17;;;23.40;99.90;;;;;;5111010;28;20531;-73
2022/10/10 13:59:43;;;;;;;2.30;1.73;;;23.00;99.90;;;;;;5107705;28;20444;-69
2022/10/10 14:02:14;;;;;;;2.83;1.87;;;22.90;99.90;;;;;;5101340;28;20444;-72
2022/10/10 14:04:47;;;;;;;2.90;1.90;;;22.90;99.90;;;;;;5108476;28;20440;-72
2022/10/10 14:07:18;;;;;;;4.43;3.37;;;23.00;99.90;;;;;;5108200;28;20475;-70
2022/10/10 14:09:49;;;;;;;4.87;2.00;;;22.60;99.90;;;;;;5103688;28;20446;-72
2022/10/10 14:12:23;;;;;;;3.30;2.20;;;22.40;99.90;;;;;;5110603;28;20501;-71
2022/10/10 14:14:53;;;;;;;1.90;1.40;;;22.50;99.90;;;;;;5110957;28;20476;-70
2022/10/10 14:17:20;;;;;;;3.50;2.60;;;22.50;99.90;;;;;;5105467;28;20460;-71
2022/10/10 14:19:48;;;;;;;3.93;2.10;;;22.20;99.90;;;;;;5110695;28;20447;-70
2022/10/10 14:22:15;;;;;;;4.00;2.60;;;22.30;99.90;;;;;;5110166;28;20456;-71
2022/10/10 14:24:42;;;;;;;2.30;1.80;;;22.40;99.90;;;;;;5111232;28;20954;-71
2022/10/10 14:27:21;;;;;;;4.77;2.20;;;22.70;99.90;;;;;;5113584;28;20447;-71
2022/10/10 14:29:48;;;;;;;2.80;2.03;;;22.70;99.90;;;;;;5112049;28;20458;-75
2022/10/10 14:32:16;;;;;;;2.27;1.70;;;22.70;99.90;;;;;;5113471;28;20444;-71
2022/10/10 14:34:44;;;;;;;3.93;2.33;;;22.70;99.90;;;;;;5113296;28;20448;-72
2022/10/10 14:37:20;;;;;;;5.43;2.67;;;22.50;99.90;;;;;;5112263;28;20440;-71